Date,TemperatureHighF,TemperatureAvgF,TemperatureLowF,DewpointHighF,DewpointAvgF,DewpointLowF,HumidityHigh,HumidityAvg,HumidityLow,PressureMaxIn,PressureMinIn,WindSpeedMaxMPH,WindSpeedAvgMPH,GustSpeedMaxMPH,PrecipitationSumIn
2013-1-1,42.0,35.6,31.0,-99.9,-99.9,-99.9,0,0,100,29.92,29.73,10,0,0,0.00
2013-1-2,51.0,35.5,29.0,-99.9,-99.9,-99.9,0,0,100,29.74,29.56,9,2,0,0.00
2013-1-3,47.0,36.0,27.0,-99.9,-99.9,-99.9,0,0,100,29.56,29.46,24,2,24,0.00
2013-1-4,45.0,42.0,39.0,-99.9,-99.9,-99.9,0,0,100,29.69,29.50,16,1,16,0.00
2013-1-5,46.0,42.2,40.0,-99.9,-99.9,-99.9,0,0,100,29.56,29.46,25,3,25,0.00
2013-1-6,45.0,42.9,41.0,-99.9,-99.9,-99.9,0,0,100,29.53,29.30,32,7,32,0.00
2013-1-7,48.0,44.9,41.0,-99.9,-99.9,-99.9,0,0,100,29.52,29.16,33,10,33,0.00
2013-1-8,47.0,43.4,39.0,-99.9,-99.9,-99.9,0,0,100,29.54,29.04,27,3,27,0.00
2013-1-9,46.0,42.8,40.0,-99.9,-99.9,-99.9,0,0,100,29.31,29.03,31,13,32,0.00
2013-1-10,46.0,36.8,28.0,-99.9,-99.9,-99.9,0,0,100,29.50,29.31,17,2,18,0.00
2013-1-11,43.0,30.8,25.0,-99.9,-99.9,-99.9,0,0,100,29.72,29.50,15,1,15,0.00
2013-1-12,43.0,29.0,23.0,-99.9,-99.9,-99.9,0,0,100,29.80,29.67,12,1,12,0.00
2013-1-13,36.0,30.3,24.0,-99.9,-99.9,-99.9,0,0,100,29.84,29.79,10,1,0,0.00
2013-1-14,39.0,35.9,33.0,-99.9,-99.9,-99.9,0,0,100,29.95,29.83,16,3,16,0.00
2013-1-15,47.0,37.5,34.0,-99.9,-99.9,-99.9,0,0,100,30.10,29.95,10,0,0,0.00
2013-1-16,48.0,37.0,30.0,-99.9,-99.9,-99.9,0,0,100,30.07,29.89,9,0,0,0.00
2013-1-17,44.0,34.7,29.0,-99.9,-99.9,-99.9,0,0,100,29.90,29.67,8,1,0,0.00
2013-1-18,42.0,36.9,34.0,-99.9,-99.9,-99.9,0,0,100,29.73,29.64,8,0,0,0.00
2013-1-19,46.0,37.7,31.0,-99.9,-99.9,-99.9,0,0,100,29.77,29.72,10,0,0,0.00
2013-1-20,50.0,37.3,31.0,-99.9,-99.9,-99.9,0,0,100,29.80,29.64,11,1,0,0.00
2013-1-21,44.0,36.7,33.0,-99.9,-99.9,-99.9,0,0,100,29.65,29.51,7,1,0,0.00
2013-1-22,41.0,36.1,33.0,-99.9,-99.9,-99.9,0,0,100,29.52,29.28,9,0,0,0.00
2013-1-23,45.0,40.9,37.0,-99.9,-99.9,-99.9,0,0,100,29.50,29.20,26,3,26,0.00
2013-1-24,44.0,42.7,40.0,-99.9,-99.9,-99.9,0,0,100,29.58,29.36,29,6,29,0.00
2013-1-25,51.0,41.6,35.0,-99.9,-99.9,-99.9,0,0,100,29.45,29.25,20,2,24,0.00
2013-1-26,45.0,41.3,38.0,-99.9,-99.9,-99.9,0,0,100,29.39,29.21,25,4,25,0.00
2013-1-27,42.0,41.2,37.0,-99.9,-99.9,-99.9,0,0,100,29.41,29.34,18,8,19,0.00
2013-1-28,45.0,41.0,35.0,-99.9,-99.9,-99.9,0,0,100,29.44,29.35,24,7,25,0.00
2013-1-29,47.0,44.0,39.0,-99.9,-99.9,-99.9,0,0,100,29.70,29.43,22,6,22,0.00
2013-1-30,46.0,44.3,43.0,-99.9,-99.9,-99.9,0,0,100,29.76,29.69,17,4,17,0.00
2013-1-31,47.0,44.8,42.0,-99.9,-99.9,-99.9,0,0,100,29.76,29.68,19,3,19,0.00
2013-2-1,51.0,43.1,37.0,-99.9,-99.9,-99.9,0,0,100,29.83,29.72,9,0,0,0.00
2013-2-2,53.0,42.2,37.0,-99.9,-99.9,-99.9,0,0,100,29.79,29.63,11,1,0,0.00
2013-2-3,45.0,42.6,41.0,-99.9,-99.9,-99.9,0,0,100,29.69,29.57,13,4,13,0.00
2013-2-4,46.0,44.1,42.0,-99.9,-99.9,-99.9,0,0,100,29.57,29.21,20,6,19,0.00
2013-2-5,50.0,44.6,42.0,-99.9,-99.9,-99.9,0,0,100,29.28,29.16,21,4,22,0.00
2013-2-6,48.0,43.9,40.0,-99.9,-99.9,-99.9,0,0,100,29.37,29.10,35,7,37,0.00
2013-2-7,47.0,43.5,39.0,-99.9,-99.9,-99.9,0,0,100,29.43,29.09,40,9,40,0.00
2013-4-12,43.0,42.4,42.0,-99.9,-99.9,-99.9,0,0,100,29.29,29.19,15,3,15,0.00
2013-4-13,46.0,41.8,35.0,-99.9,-99.9,-99.9,0,0,100,29.35,29.23,19,5,19,0.00
2013-4-14,50.0,41.4,34.0,-99.9,-99.9,-99.9,0,0,100,29.42,29.31,13,2,13,0.00
2013-4-15,53.0,43.1,35.0,-99.9,-99.9,-99.9,0,0,100,29.56,29.30,17,3,17,0.00
2013-4-16,57.0,45.1,35.0,-99.9,-99.9,-99.9,0,0,100,29.78,29.56,13,3,13,0.00
2013-4-17,50.0,46.0,37.0,-99.9,-99.9,-99.9,0,0,100,29.85,29.76,18,7,18,0.00
2013-4-18,48.0,45.6,43.0,-99.9,-99.9,-99.9,0,0,100,29.84,29.57,17,5,17,0.00
2013-4-19,53.0,48.5,47.0,-99.9,-99.9,-99.9,0,0,100,29.58,29.46,26,4,26,0.00
2013-4-20,53.0,48.7,46.0,-99.9,-99.9,-99.9,0,0,100,29.66,29.57,23,11,23,0.00
2013-4-21,52.0,46.1,39.0,-99.9,-99.9,-99.9,0,0,100,29.77,29.61,16,4,17,0.00
2013-4-22,63.0,47.8,36.0,-99.9,-99.9,-99.9,0,0,100,30.00,29.77,14,2,14,0.00
2013-4-23,62.0,45.8,35.0,-99.9,-99.9,-99.9,0,0,100,29.83,29.69,10,2,0,0.00
2013-4-24,63.0,48.8,38.0,-99.9,-99.9,-99.9,0,0,100,29.75,29.44,5,2,0,0.00
2013-4-25,64.0,49.4,40.0,-99.9,-99.9,-99.9,0,0,100,29.55,29.43,15,2,14,0.00
2013-4-26,56.0,47.5,41.0,-99.9,-99.9,-99.9,0,0,100,29.67,29.53,19,6,19,0.00
2013-4-27,53.0,47.9,44.0,-99.9,-99.9,-99.9,0,0,100,29.61,29.51,16,3,16,0.00
2013-4-28,51.0,47.0,42.0,-99.9,-99.9,-99.9,0,0,100,29.61,29.31,20,7,22,0.00
2013-4-29,52.0,46.4,43.0,-99.9,-99.9,-99.9,0,0,100,29.54,29.31,30,13,30,0.00
2013-4-30,52.0,44.0,36.0,-99.9,-99.9,-99.9,0,0,100,29.81,29.54,17,3,17,0.00
2013-5-1,56.0,44.3,33.0,-99.9,-99.9,-99.9,0,0,100,30.03,29.81,10,3,0,0.00
2013-5-2,64.0,50.2,38.0,-99.9,-99.9,-99.9,0,0,100,29.95,29.80,12,1,12,0.00
2013-5-3,71.0,54.5,44.0,-99.9,-99.9,-99.9,0,0,100,29.86,29.66,15,2,15,0.00
2013-5-4,79.0,59.2,48.0,-99.9,-99.9,-99.9,0,0,100,29.72,29.43,12,2,12,0.00
2013-5-5,76.0,59.5,50.0,-99.9,-99.9,-99.9,0,0,100,29.45,29.22,10,1,0,0.00
2013-5-6,72.0,57.5,48.0,-99.9,-99.9,-99.9,0,0,100,29.33,29.19,11,2,0,0.00
2013-5-7,59.0,50.1,45.0,-99.9,-99.9,-99.9,0,0,100,29.41,29.21,15,3,0,0.00
2013-5-8,54.0,49.7,45.0,-99.9,-99.9,-99.9,0,0,100,29.59,29.38,15,5,0,0.00
2013-5-9,59.0,48.8,42.0,-99.9,-99.9,-99.9,0,0,100,29.67,29.53,9,3,0,0.00
2013-5-10,56.0,48.4,44.0,-99.9,-99.9,-99.9,0,0,100,29.65,29.53,10,2,0,0.00
2013-5-11,61.0,52.5,45.0,-99.9,-99.9,-99.9,0,0,100,29.59,29.42,10,1,0,0.00
2013-5-12,60.0,54.8,50.0,-99.9,-99.9,-99.9,0,0,100,29.51,29.41,10,1,0,0.00
2013-5-13,58.0,51.8,48.0,-99.9,-99.9,-99.9,0,0,100,29.59,29.34,34,6,36,0.00
2013-5-14,60.0,50.6,46.0,-99.9,-99.9,-99.9,0,0,100,29.66,29.53,15,4,15,0.00
2013-5-15,57.0,50.1,45.0,-99.9,-99.9,-99.9,0,0,100,29.54,29.43,9,1,0,0.00
2013-5-16,62.0,52.7,47.0,-99.9,-99.9,-99.9,0,0,100,29.43,29.33,14,2,13,0.00
2013-5-17,57.0,50.4,46.0,-99.9,-99.9,-99.9,0,0,100,29.46,29.33,12,2,12,0.00
2013-5-18,57.0,51.6,49.0,-99.9,-99.9,-99.9,0,0,100,29.68,29.46,12,1,12,0.00
2013-5-19,61.0,52.5,45.0,-99.9,-99.9,-99.9,0,0,100,29.86,29.68,9,2,0,0.00
2013-5-20,60.0,49.8,41.0,-99.9,-99.9,-99.9,0,0,100,29.75,29.34,12,2,0,0.00
2013-5-21,53.0,47.9,45.0,-99.9,-99.9,-99.9,0,0,100,29.35,29.21,13,4,0,0.00
2013-5-22,56.0,48.9,44.0,-99.9,-99.9,-99.9,0,0,100,29.36,29.25,17,3,17,0.00
2013-5-23,57.0,49.8,44.0,-99.9,-99.9,-99.9,0,0,100,29.42,29.31,24,4,24,0.00
2013-5-24,62.0,50.5,42.0,-99.9,-99.9,-99.9,0,0,100,29.48,29.37,11,3,12,0.00
2013-5-25,58.0,51.5,48.0,-99.9,-99.9,-99.9,0,0,100,29.48,29.40,12,2,12,0.00
2013-5-26,59.0,51.6,48.0,-99.9,-99.9,-99.9,0,0,100,29.44,29.35,4,0,0,0.00
2013-5-27,57.0,52.7,49.0,-99.9,-99.9,-99.9,0,0,100,29.35,29.09,20,3,20,0.00
2013-5-28,60.0,52.9,49.0,-99.9,-99.9,-99.9,0,0,100,29.29,29.15,17,2,17,0.00
2013-5-29,58.0,50.6,48.0,-99.9,-99.9,-99.9,0,0,100,29.36,29.10,17,3,18,0.00
2013-5-30,58.0,51.0,47.0,-99.9,-99.9,-99.9,0,0,100,29.65,29.37,15,4,12,0.00
2013-5-31,62.0,52.1,46.0,-99.9,-99.9,-99.9,0,0,100,29.79,29.65,10,1,0,0.00
2013-6-1,68.0,54.3,47.0,-99.9,-99.9,-99.9,0,0,100,29.66,29.52,12,2,12,0.00
2013-6-2,66.0,55.9,48.0,-99.9,-99.9,-99.9,0,0,100,29.55,29.46,14,2,14,0.00
2013-6-3,63.0,52.9,45.0,-99.9,-99.9,-99.9,0,0,100,29.58,29.47,8,1,0,0.00
2013-6-4,66.0,53.7,45.0,-99.9,-99.9,-99.9,0,0,100,29.61,29.44,7,1,0,0.00
2013-6-5,64.0,54.2,48.0,-99.9,-99.9,-99.9,0,0,100,29.57,29.43,9,1,0,0.00
2013-6-6,68.0,55.1,47.0,-99.9,-99.9,-99.9,0,0,100,29.53,29.41,13,1,13,0.00
2013-6-7,63.0,53.7,50.0,-99.9,-99.9,-99.9,0,0,100,29.55,29.41,19,5,19,0.00
2013-6-8,66.0,54.1,46.0,-99.9,-99.9,-99.9,0,0,100,29.61,29.53,13,2,0,0.00
2013-6-9,62.0,53.8,49.0,-99.9,-99.9,-99.9,0,0,100,29.55,29.45,21,5,21,0.00
2013-6-10,62.0,52.1,42.0,-99.9,-99.9,-99.9,0,0,100,29.45,29.31,13,4,13,0.00
2013-6-11,57.0,52.2,49.0,-99.9,-99.9,-99.9,0,0,100,29.50,29.33,15,5,14,0.00
2013-6-12,60.0,52.4,47.0,-99.9,-99.9,-99.9,0,0,100,29.59,29.50,10,1,0,0.00
2013-6-13,63.0,53.3,45.0,-99.9,-99.9,-99.9,0,0,100,29.64,29.55,22,3,22,0.00
2013-6-14,63.0,53.2,48.0,-99.9,-99.9,-99.9,0,0,100,29.66,29.49,18,5,18,0.00
2013-6-15,74.0,57.9,45.0,-99.9,-99.9,-99.9,0,0,100,29.49,29.38,13,1,14,0.00
2013-6-16,64.0,55.0,48.0,-99.9,-99.9,-99.9,0,0,100,29.52,29.40,16,3,19,0.00
2013-6-17,67.0,57.0,51.0,-99.9,-99.9,-99.9,0,0,100,29.51,29.34,18,3,20,0.00
2013-6-18,63.0,55.3,49.0,-99.9,-99.9,-99.9,0,0,100,29.39,29.33,120,19,120,0.00
2013-6-19,63.0,54.8,48.0,-99.9,-99.9,-99.9,0,0,100,29.41,29.31,18,4,18,0.00
2013-6-20,54.0,52.2,51.0,-99.9,-99.9,-99.9,0,0,100,29.51,29.34,22,11,24,0.00
2013-6-21,65.0,54.7,48.0,-99.9,-99.9,-99.9,0,0,100,29.64,29.50,12,2,12,0.00
2013-6-22,68.0,55.3,46.0,-99.9,-99.9,-99.9,0,0,100,29.54,29.30,11,2,0,0.00
2013-6-23,65.0,57.9,53.0,-99.9,-99.9,-99.9,0,0,100,29.30,29.03,8,0,0,0.00
2013-6-24,62.0,54.9,52.0,-99.9,-99.9,-99.9,0,0,100,29.14,28.97,15,1,16,0.00
2013-6-25,67.0,56.5,53.0,-99.9,-99.9,-99.9,0,0,100,29.24,29.08,18,3,18,0.00
2013-6-26,66.0,56.5,53.0,-99.9,-99.9,-99.9,0,0,100,29.49,29.23,21,2,21,0.00
2013-6-27,68.0,58.1,52.0,-99.9,-99.9,-99.9,0,0,100,29.64,29.47,19,1,19,0.00
2013-6-28,74.0,58.2,50.0,-99.9,-99.9,-99.9,0,0,100,29.64,29.51,8,0,0,0.00
2013-6-29,68.0,57.9,53.0,-99.9,-99.9,-99.9,0,0,100,29.57,29.44,13,2,13,0.00
2013-6-30,74.0,60.3,51.0,-99.9,-99.9,-99.9,0,0,100,29.49,29.31,7,1,0,0.00
2013-7-1,68.0,60.1,55.0,-99.9,-99.9,-99.9,0,0,100,29.45,29.33,22,2,22,0.00
2013-7-2,65.0,58.0,53.0,-99.9,-99.9,-99.9,0,0,100,29.57,29.44,15,4,15,0.00
2013-7-3,68.0,56.8,48.0,-99.9,-99.9,-99.9,0,0,100,29.62,29.47,53,2,70,0.00
2013-7-4,64.0,56.7,52.0,-99.9,-99.9,-99.9,0,0,100,29.56,29.44,18,4,18,0.00
2013-7-5,69.0,56.4,48.0,-99.9,-99.9,-99.9,0,0,100,29.48,29.39,10,2,0,0.00
2013-7-6,68.0,58.7,49.0,-99.9,-99.9,-99.9,0,0,100,29.45,29.36,14,2,14,0.00
2013-7-7,62.0,53.7,50.0,-99.9,-99.9,-99.9,0,0,100,29.40,29.32,61,0,61,0.00
2013-7-8,68.0,56.4,50.0,-99.9,-99.9,-99.9,0,0,100,29.57,29.36,11,2,0,0.00
2013-7-9,69.0,56.9,50.0,-99.9,-99.9,-99.9,0,0,100,29.57,29.43,12,2,12,0.00
2013-7-10,65.0,55.5,49.0,-99.9,-99.9,-99.9,0,0,100,29.51,29.37,25,5,25,0.00
2013-7-11,64.0,56.3,52.0,-99.9,-99.9,-99.9,0,0,100,29.52,29.37,28,8,28,0.00
2013-7-12,64.0,55.2,48.0,-99.9,-99.9,-99.9,0,0,100,29.51,29.43,13,2,12,0.00
2013-7-13,65.0,55.6,45.0,-99.9,-99.9,-99.9,0,0,100,29.67,29.51,12,2,12,0.00
2013-7-14,67.0,55.1,47.0,-99.9,-99.9,-99.9,0,0,100,29.59,29.46,15,2,15,0.00
2013-7-15,83.0,63.7,48.0,-99.9,-99.9,-99.9,0,0,100,29.55,29.36,18,2,18,0.00
2013-7-16,84.0,68.6,56.0,-99.9,-99.9,-99.9,0,0,100,29.39,29.27,18,2,18,0.00
2013-7-17,69.0,60.5,56.0,-99.9,-99.9,-99.9,0,0,100,29.61,29.31,22,7,22,0.00
2013-7-18,69.0,58.2,50.0,-99.9,-99.9,-99.9,0,0,100,29.70,29.55,14,1,14,0.00
2013-7-19,69.0,57.9,52.0,-99.9,-99.9,-99.9,0,0,100,29.61,29.46,11,2,0,0.00
2013-7-20,64.0,54.7,51.0,-99.9,-99.9,-99.9,0,0,100,29.53,29.37,15,3,16,0.00
2013-7-21,63.0,54.1,50.0,-99.9,-99.9,-99.9,0,0,100,29.43,29.34,11,2,0,0.00
2013-7-22,65.0,54.6,48.0,-99.9,-99.9,-99.9,0,0,100,29.53,29.35,7,1,0,0.00
2013-7-23,65.0,54.8,49.0,-99.9,-99.9,-99.9,0,0,100,29.54,29.42,6,1,0,0.00
2013-7-24,63.0,53.7,49.0,-99.9,-99.9,-99.9,0,0,100,29.51,29.42,11,3,0,0.00
2013-7-25,61.0,52.9,47.0,-99.9,-99.9,-99.9,0,0,100,29.57,29.43,10,2,0,0.00
2013-7-26,67.0,55.0,48.0,-99.9,-99.9,-99.9,0,0,100,29.63,29.49,12,2,12,0.00
2013-7-27,68.0,55.9,47.0,-99.9,-99.9,-99.9,0,0,100,29.61,29.41,8,1,0,0.00
2013-7-28,66.0,53.6,46.0,-99.9,-99.9,-99.9,0,0,100,29.46,29.38,10,2,0,0.00
2013-7-29,59.0,53.4,50.0,-99.9,-99.9,-99.9,0,0,100,29.45,29.38,10,4,0,0.00
2013-7-30,62.0,53.5,49.0,-99.9,-99.9,-99.9,0,0,100,29.59,29.41,13,4,0,0.00
2013-7-31,55.0,52.8,50.0,-99.9,-99.9,-99.9,0,0,100,29.57,29.43,12,3,12,0.00
2013-8-1,60.0,54.3,49.0,-99.9,-99.9,-99.9,0,0,100,29.49,29.43,20,8,21,0.00
2013-8-2,57.0,54.7,53.0,-99.9,-99.9,-99.9,0,0,100,29.57,29.46,20,6,0,0.00
2013-8-3,68.0,56.8,52.0,-99.9,-99.9,-99.9,0,0,100,29.60,29.50,7,1,0,0.00
2013-8-4,70.0,56.5,50.0,-99.9,-99.9,-99.9,0,0,100,29.54,29.40,6,1,0,0.00
2013-8-5,66.0,54.3,49.0,-99.9,-99.9,-99.9,0,0,100,29.49,29.36,7,1,0,0.00
2013-8-6,61.0,52.3,47.0,-99.9,-99.9,-99.9,0,0,100,29.47,29.35,15,2,0,0.00
2013-8-7,65.0,53.7,49.0,-99.9,-99.9,-99.9,0,0,100,29.47,29.35,13,3,13,0.00
2013-8-8,69.0,55.7,51.0,-99.9,-99.9,-99.9,0,0,100,29.47,29.36,12,3,0,0.00
2013-8-9,69.0,55.2,48.0,-99.9,-99.9,-99.9,0,0,100,29.39,29.27,12,1,0,0.00
2013-8-10,62.0,55.2,52.0,-99.9,-99.9,-99.9,0,0,100,29.45,29.26,18,3,18,0.00
2013-8-11,61.0,54.7,51.0,-99.9,-99.9,-99.9,0,0,100,29.53,29.41,13,4,13,0.00
2013-8-12,63.0,55.0,50.0,-99.9,-99.9,-99.9,0,0,100,29.53,29.42,11,2,0,0.00
2013-8-13,70.0,56.8,50.0,-99.9,-99.9,-99.9,0,0,100,29.57,29.36,8,1,0,0.00
2013-8-14,68.0,56.5,49.0,-99.9,-99.9,-99.9,0,0,100,29.39,29.34,8,0,0,0.00
2013-8-15,59.0,56.0,53.0,-99.9,-99.9,-99.9,0,0,100,29.44,29.35,11,2,0,0.00
2013-8-16,71.0,62.2,55.0,-99.9,-99.9,-99.9,0,0,100,29.48,29.41,10,1,0,0.00
2013-8-17,66.0,57.6,51.0,-99.9,-99.9,-99.9,0,0,100,29.54,29.42,13,2,12,0.00
2013-8-18,64.0,56.3,51.0,-99.9,-99.9,-99.9,0,0,100,29.59,29.49,12,2,12,0.00
2013-8-19,67.0,57.6,50.0,-99.9,-99.9,-99.9,0,0,100,29.60,29.49,20,3,20,0.00
2013-8-20,69.0,56.8,51.0,-99.9,-99.9,-99.9,0,0,100,29.65,29.51,10,1,0,0.00
2013-8-21,75.0,58.1,47.0,-99.9,-99.9,-99.9,0,0,100,29.57,29.38,11,1,0,0.00
2013-8-22,75.0,57.3,48.0,-99.9,-99.9,-99.9,0,0,100,29.39,29.21,8,0,0,0.00
2013-8-23,66.0,57.2,49.0,-99.9,-99.9,-99.9,0,0,100,29.34,29.22,20,6,20,0.00
2013-8-24,62.0,55.9,51.0,-99.9,-99.9,-99.9,0,0,100,29.37,29.31,14,2,0,0.00
2013-8-25,63.0,54.8,48.0,-99.9,-99.9,-99.9,0,0,100,29.40,29.29,9,1,0,0.00
2013-8-26,67.0,56.2,49.0,-99.9,-99.9,-99.9,0,0,100,29.35,29.28,13,2,13,0.00
2013-8-27,70.0,59.6,53.0,-99.9,-99.9,-99.9,0,0,100,29.37,29.24,15,2,15,0.00
2013-8-28,68.0,58.4,54.0,-99.9,-99.9,-99.9,0,0,100,29.36,29.26,8,1,0,0.00
2013-8-29,65.0,60.2,53.0,-99.9,-99.9,-99.9,0,0,100,29.38,29.29,21,2,21,0.00
2013-8-30,68.0,59.3,53.0,-99.9,-99.9,-99.9,0,0,100,29.63,29.38,12,2,12,0.00
2013-8-31,76.0,61.7,53.0,-99.9,-99.9,-99.9,0,0,100,29.53,29.28,10,1,0,0.00
2013-9-1,63.0,55.8,51.0,-99.9,-99.9,-99.9,0,0,100,29.33,29.25,11,3,0,0.00
2013-9-2,69.0,57.5,51.0,-99.9,-99.9,-99.9,0,0,100,29.37,29.27,7,1,0,0.00
2013-9-3,70.0,57.7,52.0,-99.9,-99.9,-99.9,0,0,100,29.49,29.36,9,1,0,0.00
2013-9-4,64.0,57.3,52.0,-99.9,-99.9,-99.9,0,0,100,29.51,29.45,8,1,0,0.00
2013-9-5,66.0,56.2,51.0,-99.9,-99.9,-99.9,0,0,100,29.50,29.34,19,1,19,0.00
2013-9-6,70.0,60.1,54.0,-99.9,-99.9,-99.9,0,0,100,29.52,29.35,14,1,14,0.00
2013-9-7,66.0,57.6,53.0,-99.9,-99.9,-99.9,0,0,100,29.54,29.48,11,2,0,0.00
2013-9-8,67.0,56.0,50.0,-99.9,-99.9,-99.9,0,0,100,29.58,29.46,10,1,0,0.00
2013-9-9,70.0,56.4,49.0,-99.9,-99.9,-99.9,0,0,100,29.54,29.42,5,0,0,0.00
2013-9-10,77.0,59.2,49.0,-99.9,-99.9,-99.9,0,0,100,29.49,29.35,6,0,0,0.00
2013-9-11,80.0,62.5,54.0,-99.9,-99.9,-99.9,0,0,100,29.44,29.34,8,0,0,0.00
2013-9-12,62.0,55.3,51.0,-99.9,-99.9,-99.9,0,0,100,29.44,29.33,14,3,0,0.00
2013-9-13,61.0,54.7,52.0,-99.9,-99.9,-99.9,0,0,100,29.40,29.29,13,4,0,0.00
2013-9-14,64.0,55.0,50.0,-99.9,-99.9,-99.9,0,0,100,29.32,29.17,12,1,12,0.00
2013-9-15,57.0,52.6,49.0,-99.9,-99.9,-99.9,0,0,100,29.21,29.13,22,3,22,0.00
2013-9-16,63.0,56.2,53.0,-99.9,-99.9,-99.9,0,0,100,29.35,29.21,14,2,16,0.00
2013-9-17,66.0,56.0,51.0,-99.9,-99.9,-99.9,0,0,100,29.34,29.29,15,2,16,0.00
2013-9-18,61.0,55.4,49.0,-99.9,-99.9,-99.9,0,0,100,29.51,29.33,14,3,14,0.00
2013-9-19,69.0,57.5,50.0,-99.9,-99.9,-99.9,0,0,100,29.47,29.16,11,1,0,0.00
2013-9-20,63.0,53.6,46.0,-99.9,-99.9,-99.9,0,0,100,29.16,29.03,13,1,13,0.00
2013-9-21,66.0,54.6,50.0,-99.9,-99.9,-99.9,0,0,100,29.17,29.07,10,2,0,0.00
2013-9-22,57.0,53.1,50.0,-99.9,-99.9,-99.9,0,0,100,29.11,28.90,35,5,35,0.00
2013-9-23,58.0,51.4,49.0,-99.9,-99.9,-99.9,0,0,100,29.37,29.11,14,2,14,0.00
2013-9-24,61.0,51.3,48.0,-99.9,-99.9,-99.9,0,0,100,29.37,29.27,9,1,0,0.00
2013-9-25,61.0,51.7,45.0,-99.9,-99.9,-99.9,0,0,100,29.43,29.29,16,3,19,0.00
2013-9-26,63.0,50.2,43.0,-99.9,-99.9,-99.9,0,0,100,29.57,29.42,9,2,0,0.00
2013-9-27,57.0,51.7,47.0,-99.9,-99.9,-99.9,0,0,100,29.51,29.23,12,2,12,0.00
2013-9-28,56.0,52.2,48.0,-99.9,-99.9,-99.9,0,0,100,29.23,28.71,25,4,26,0.00
2013-9-29,56.0,51.8,49.0,-99.9,-99.9,-99.9,0,0,100,28.91,28.48,32,8,45,0.00
2013-9-30,53.0,50.5,48.0,-99.9,-99.9,-99.9,0,0,100,29.29,28.71,28,9,28,0.00
2013-10-1,53.0,49.0,45.0,-99.9,-99.9,-99.9,0,0,100,29.51,29.28,15,3,12,0.00
2013-10-2,53.0,49.4,47.0,-99.9,-99.9,-99.9,0,0,100,29.61,29.46,13,2,13,0.00
2013-10-3,57.0,47.7,42.0,-99.9,-99.9,-99.9,0,0,100,29.87,29.61,11,2,0,0.00
2013-10-4,54.0,46.8,40.0,-99.9,-99.9,-99.9,0,0,100,29.92,29.77,8,1,0,0.00
2013-10-5,64.0,53.0,48.0,-99.9,-99.9,-99.9,0,0,100,29.78,29.55,8,1,0,0.00
2013-10-6,66.0,52.4,45.0,-99.9,-99.9,-99.9,0,0,100,29.55,29.22,8,1,0,0.00
2013-10-7,55.0,52.0,50.0,-99.9,-99.9,-99.9,0,0,100,29.40,29.25,25,9,25,0.00
2013-10-8,63.0,52.2,45.0,-99.9,-99.9,-99.9,0,0,100,29.51,29.37,24,4,24,0.00
2013-10-9,50.0,48.4,46.0,-99.9,-99.9,-99.9,0,0,100,29.53,29.51,17,2,17,0.00
2013-10-10,54.0,48.9,41.0,-99.9,-99.9,-99.9,0,0,100,29.47,29.41,7,1,0,0.00
2013-10-11,54.0,46.5,40.0,-99.9,-99.9,-99.9,0,0,100,29.59,29.46,7,2,0,0.00
2013-10-12,62.0,49.7,42.0,-99.9,-99.9,-99.9,0,0,100,29.62,29.49,13,1,13,0.00
2013-10-13,60.0,47.5,40.0,-99.9,-99.9,-99.9,0,0,100,29.77,29.62,8,2,0,0.00
2013-10-14,62.0,47.6,40.0,-99.9,-99.9,-99.9,0,0,100,29.90,29.77,12,2,12,0.00
2013-10-15,54.0,48.0,41.0,-99.9,-99.9,-99.9,0,0,100,29.80,29.60,9,2,0,0.00
2013-10-16,62.0,49.7,43.0,-99.9,-99.9,-99.9,0,0,100,29.65,29.57,10,1,0,0.00
2013-10-17,60.0,47.1,41.0,-99.9,-99.9,-99.9,0,0,100,29.73,29.61,10,2,0,0.00
2013-10-18,60.0,46.8,40.0,-99.9,-99.9,-99.9,0,0,100,29.69,29.57,9,1,0,0.00
2013-10-19,53.0,47.3,40.0,-99.9,-99.9,-99.9,0,0,100,29.63,29.57,9,0,0,0.00
2013-10-20,52.0,48.3,46.0,-99.9,-99.9,-99.9,0,0,100,29.64,29.58,7,0,0,0.00
2013-10-21,53.0,47.9,45.0,-99.9,-99.9,-99.9,0,0,100,29.61,29.53,8,1,0,0.00
2013-10-22,51.0,45.4,38.0,-99.9,-99.9,-99.9,0,0,100,29.55,29.45,5,0,0,0.00
2013-10-23,50.0,42.8,37.0,-99.9,-99.9,-99.9,0,0,100,29.49,29.39,4,0,0,0.00
2013-10-24,47.0,43.2,38.0,-99.9,-99.9,-99.9,0,0,100,29.52,29.43,5,1,0,0.00
2013-10-25,54.0,48.0,46.0,-99.9,-99.9,-99.9,0,0,100,29.75,29.52,8,1,0,0.00
2013-10-26,57.0,49.7,46.0,-99.9,-99.9,-99.9,0,0,100,29.78,29.61,7,0,0,0.00
2013-10-27,64.0,53.4,46.0,-99.9,-99.9,-99.9,0,0,100,29.61,29.39,27,3,27,0.00
2013-10-28,63.0,53.9,46.0,-99.9,-99.9,-99.9,0,0,100,29.46,29.36,27,4,31,0.00
2013-10-29,57.0,43.8,36.0,-99.9,-99.9,-99.9,0,0,100,29.47,29.34,15,4,16,0.00
2013-10-30,51.0,45.4,37.0,-99.9,-99.9,-99.9,0,0,100,29.54,29.41,15,3,15,0.00
2013-10-31,51.0,48.6,47.0,-99.9,-99.9,-99.9,0,0,100,29.66,29.46,13,2,13,0.00
2013-11-1,54.0,49.8,47.0,-99.9,-99.9,-99.9,0,0,100,29.68,29.21,12,2,12,0.00
2013-11-2,53.0,47.0,43.0,-99.9,-99.9,-99.9,0,0,100,29.27,28.77,31,5,31,0.00
2013-11-3,54.0,43.4,34.0,-99.9,-99.9,-99.9,0,0,100,29.49,29.27,15,2,15,0.00
2013-11-4,47.0,40.3,33.0,-99.9,-99.9,-99.9,0,0,100,29.61,29.43,15,2,16,0.00
2013-11-5,42.0,41.5,41.0,-99.9,-99.9,-99.9,0,0,100,29.44,29.43,11,2,13,0.00
2013-11-8,44.0,43.3,42.0,-99.9,-99.9,-99.9,0,0,100,29.55,29.54,3,0,0,0.00
2013-11-9,52.0,45.1,42.0,-99.9,-99.9,-99.9,0,0,100,29.55,29.51,8,0,0,0.00
2013-11-10,49.0,46.1,43.0,-99.9,-99.9,-99.9,0,0,100,29.59,29.53,11,1,12,0.00
2013-11-11,60.0,49.9,44.0,-99.9,-99.9,-99.9,0,0,100,29.58,29.40,14,1,14,0.00
2013-11-12,55.0,51.0,45.0,-99.9,-99.9,-99.9,0,0,100,29.75,29.39,22,3,22,0.00
2013-11-13,54.0,48.7,46.0,-99.9,-99.9,-99.9,0,0,100,29.85,29.72,13,4,17,0.00
2013-11-14,58.0,46.7,40.0,-99.9,-99.9,-99.9,0,0,100,29.72,29.44,10,1,0,0.00
2013-11-15,48.0,45.3,40.0,-99.9,-99.9,-99.9,0,0,100,29.45,28.70,29,13,29,0.00
2013-11-16,46.0,44.2,40.0,-99.9,-99.9,-99.9,0,0,100,29.14,28.74,26,9,26,0.00
2013-11-17,49.0,45.0,36.0,-99.9,-99.9,-99.9,0,0,100,29.29,29.14,24,9,24,0.00
2013-11-18,47.0,44.7,43.0,-99.9,-99.9,-99.9,0,0,100,29.29,28.93,10,0,0,0.00
2013-11-19,51.0,42.5,35.0,-99.9,-99.9,-99.9,0,0,100,29.46,28.96,21,3,21,0.00
2013-11-20,49.0,33.8,26.0,-99.9,-99.9,-99.9,0,0,100,29.89,29.46,10,2,0,0.00
2013-11-21,48.0,32.0,25.0,-99.9,-99.9,-99.9,0,0,100,30.08,29.89,8,2,0,0.00
2013-11-22,47.0,36.5,27.0,-99.9,-99.9,-99.9,0,0,100,30.06,29.85,11,1,0,0.00
2013-11-23,52.0,39.1,33.0,-99.9,-99.9,-99.9,0,0,100,29.85,29.59,10,0,0,0.00
2013-11-24,54.0,40.3,34.0,-99.9,-99.9,-99.9,0,0,100,29.65,29.56,7,1,0,0.00
2013-11-25,47.0,38.3,33.0,-99.9,-99.9,-99.9,0,0,100,29.74,29.64,10,2,0,0.00
2013-11-26,46.0,38.8,31.0,-99.9,-99.9,-99.9,0,0,100,29.65,29.49,8,1,0,0.00
2013-11-27,53.0,42.7,36.0,-99.9,-99.9,-99.9,0,0,100,29.49,29.38,6,1,0,0.00
2013-11-28,49.0,42.0,35.0,-99.9,-99.9,-99.9,0,0,100,29.57,29.41,9,2,0,0.00
2013-11-29,51.0,47.0,45.0,-99.9,-99.9,-99.9,0,0,100,29.71,29.57,13,4,0,0.00
2013-11-30,48.0,45.8,44.0,-99.9,-99.9,-99.9,0,0,100,29.71,29.46,11,1,0,0.00
2013-12-1,51.0,46.9,40.0,-99.9,-99.9,-99.9,0,0,100,29.46,29.14,38,11,38,0.00
2013-12-2,48.0,39.1,32.0,-99.9,-99.9,-99.9,0,0,100,29.47,29.17,29,6,29,0.00
2013-12-3,44.0,33.9,30.0,-99.9,-99.9,-99.9,0,0,100,29.72,29.46,34,3,34,0.00
2013-12-4,43.0,29.8,22.0,-99.9,-99.9,-99.9,0,0,100,29.78,29.67,16,1,16,0.00
2013-12-5,33.0,26.3,21.0,-99.9,-99.9,-99.9,0,0,100,29.68,29.55,9,1,0,0.00
2013-12-6,31.0,24.2,19.0,-99.9,-99.9,-99.9,0,0,100,29.64,29.55,24,3,24,0.00
2013-12-7,35.0,21.5,15.0,-99.9,-99.9,-99.9,0,0,100,29.77,29.63,22,2,22,0.00
2013-12-8,39.0,26.2,16.0,-99.9,-99.9,-99.9,0,0,100,29.91,29.71,11,2,0,0.00
2013-12-9,33.0,30.4,26.0,-99.9,-99.9,-99.9,0,0,100,29.92,29.88,17,3,17,0.00
2013-12-12,43.0,42.1,41.0,-99.9,-99.9,-99.9,0,0,100,29.49,29.35,20,4,20,0.00
2013-12-13,45.0,43.5,41.0,-99.9,-99.9,-99.9,0,0,100,29.81,29.49,13,2,13,0.00
2013-12-14,47.0,44.6,43.0,-99.9,-99.9,-99.9,0,0,100,29.81,29.69,12,1,12,0.00
2013-12-15,49.0,45.1,41.0,-99.9,-99.9,-99.9,0,0,100,29.81,29.69,18,3,18,0.00
2013-12-16,50.0,40.0,33.0,-99.9,-99.9,-99.9,0,0,100,29.88,29.64,11,3,0,0.00
2013-12-17,46.0,40.4,33.0,-99.9,-99.9,-99.9,0,0,100,29.64,29.46,21,6,21,0.00
2013-12-18,48.0,40.8,32.0,-99.9,-99.9,-99.9,0,0,100,29.59,29.42,26,5,26,0.00
2013-12-19,39.0,32.6,27.0,-99.9,-99.9,-99.9,0,0,100,29.73,29.55,10,0,13,0.00
2013-12-20,37.0,34.0,31.0,-99.9,-99.9,-99.9,0,0,100,29.55,29.07,22,2,22,0.00
2013-12-21,41.0,37.8,35.0,-99.9,-99.9,-99.9,0,0,100,29.54,29.23,9,0,0,0.00
2013-12-22,45.0,41.9,39.0,-99.9,-99.9,-99.9,0,0,100,29.67,29.53,7,0,0,0.00
2013-12-23,50.0,45.9,38.0,-99.9,-99.9,-99.9,0,0,100,29.88,29.50,31,8,31,0.00
2013-12-24,47.0,39.5,30.0,-99.9,-99.9,-99.9,0,0,100,30.01,29.88,10,2,0,0.00
2013-12-25,42.0,37.4,30.0,-99.9,-99.9,-99.9,0,0,100,29.91,29.77,6,1,0,0.00
2013-12-26,50.0,39.4,32.0,-99.9,-99.9,-99.9,0,0,100,29.77,29.56,11,2,0,0.00
2013-12-27,48.0,40.6,32.0,-99.9,-99.9,-99.9,0,0,100,29.72,29.46,28,5,28,0.00
2013-12-28,47.0,37.9,33.0,-99.9,-99.9,-99.9,0,0,100,29.93,29.72,4,2,0,0.00
2013-12-29,44.0,39.8,32.0,-99.9,-99.9,-99.9,0,0,100,29.85,29.70,15,5,18,0.00
2013-12-30,45.0,41.7,38.0,-99.9,-99.9,-99.9,0,0,100,29.70,29.51,12,2,15,0.00
2013-12-31,46.0,43.8,43.0,-99.9,-99.9,-99.9,0,0,100,29.78,29.56,14,2,13,0.00
2014-1-1,46.0,42.5,39.0,-99.9,-99.9,-99.9,0,0,100,29.81,29.64,6,0,0,0.00
2014-1-2,46.0,43.3,41.0,-99.9,-99.9,-99.9,0,0,100,29.64,29.27,28,3,28,0.00